CheckWX is a tool to help pilots better visualize weather data.  It is not intended as a substitute for an official pre-flight weather briefing.

09:14:48 UTC

KRUE METAR
Russellville Regional Airport
Russellville, Arkansas, USA
Current

22 mins ago

KRUE 250853Z AUTO 00000KT 9SM OVC009 23/21 A2994 RMK AO2 SLP131 60000 T02330211 56010
Observed
Aug-25 @ 08:53 UTC
Visibility
9 SM
Flight Rules
IFR
Cloud Levels
  • Overcast at 900' AGL
Temperature
23°C / 73°F
Dewpoint
21°C / 70°F
Humidity
89%
Altimeter
29.94" Hg
Pressure
1013.92 hPa
Previous

1 hour ago

KRUE 250753Z AUTO VRB03KT 9SM OVC012 23/21 A2995 RMK AO2 SLP136 T02330211
Observed
Aug-25 @ 07:53 UTC
Wind
  • Variable at 3 KTS
Visibility
9 SM
Flight Rules
MVFR
Cloud Levels
  • Overcast at 1,200' AGL
Temperature
23°C / 73°F
Dewpoint
21°C / 70°F
Humidity
89%
Altimeter
29.95" Hg
Pressure
1014.22 hPa
Previous

2 hours ago

KRUE 250653Z AUTO 00000KT 10SM OVC011 23/21 A2997 RMK AO2 RAB39E49 SLP141 P0000 T02330211
Observed
Aug-25 @ 06:53 UTC
Visibility
10 SM
Flight Rules
MVFR
Cloud Levels
  • Overcast at 1,100' AGL
Temperature
23°C / 73°F
Dewpoint
21°C / 70°F
Humidity
89%
Altimeter
29.97" Hg
Pressure
1014.92 hPa
Current Rain
0.01"